createdAt,value
2023-01-11T00:02:12.266Z,8.90
2023-01-11T00:04:47.761Z,9.10
2023-01-11T00:07:21.869Z,9.40
2023-01-11T00:09:56.347Z,8.80
2023-01-11T00:12:31.475Z,9.10
2023-01-11T00:15:05.428Z,8.20
2023-01-11T00:17:39.265Z,9.00
2023-01-11T00:20:14.754Z,8.60
2023-01-11T00:22:49.370Z,9.00
2023-01-11T00:25:23.325Z,8.70
2023-01-11T00:27:58.681Z,8.70
2023-01-11T00:30:33.037Z,8.50
2023-01-11T00:33:08.225Z,8.20
2023-01-11T00:35:42.549Z,8.40
2023-01-11T00:38:36.720Z,8.30
2023-01-11T00:41:24.928Z,8.40
2023-01-11T00:44:21.872Z,7.90
2023-01-11T00:47:13.609Z,8.10
2023-01-11T00:49:48.387Z,7.80
2023-01-11T00:52:22.568Z,8.40
2023-01-11T00:54:56.734Z,8.00
2023-01-11T00:57:30.647Z,8.30
2023-01-11T01:00:05.101Z,7.70
2023-01-11T01:02:39.091Z,8.00
2023-01-11T01:05:14.048Z,7.80
2023-01-11T01:07:48.993Z,7.40
2023-01-11T01:10:23.574Z,7.80
2023-01-11T01:13:15.077Z,7.80
2023-01-11T01:15:49.100Z,7.70
2023-01-11T01:18:22.891Z,8.30
2023-01-11T01:20:56.851Z,7.80
2023-01-11T01:23:30.760Z,7.50
2023-01-11T01:26:07.383Z,7.70
2023-01-11T01:28:41.669Z,7.40
2023-01-11T01:31:15.679Z,7.60
2023-01-11T01:33:52.594Z,7.60
2023-01-11T01:36:27.220Z,7.30
2023-01-11T01:39:02.103Z,7.60
2023-01-11T01:41:36.832Z,7.60
2023-01-11T01:44:58.230Z,7.60
2023-01-11T01:47:39.608Z,7.10
2023-01-11T01:50:19.323Z,7.40
2023-01-11T01:52:57.258Z,6.80
2023-01-11T01:55:35.697Z,7.10
2023-01-11T01:58:14.898Z,7.00
2023-01-11T02:00:50.336Z,7.50
2023-01-11T02:03:28.707Z,7.30
2023-01-11T02:06:02.531Z,7.20
2023-01-11T02:08:41.894Z,7.40
2023-01-11T02:11:32.943Z,7.10
2023-01-11T02:14:10.533Z,7.30
2023-01-11T02:16:44.657Z,7.10
2023-01-11T02:19:34.879Z,7.20
2023-01-11T02:22:40.267Z,7.30
2023-01-11T02:25:46.220Z,7.00
2023-01-11T02:28:25.345Z,7.10
2023-01-11T02:31:10.685Z,7.00
2023-01-11T02:33:51.645Z,6.90
2023-01-11T02:36:34.697Z,7.10
2023-01-11T02:39:22.617Z,6.90
2023-01-11T02:42:23.094Z,6.90
2023-01-11T02:45:05.795Z,6.80
2023-01-11T02:47:50.410Z,7.10
2023-01-11T02:50:32.923Z,7.10
2023-01-11T02:53:18.800Z,6.90
2023-01-11T02:56:00.140Z,6.90
2023-01-11T02:58:39.504Z,7.20
2023-01-11T03:01:15.126Z,7.20
2023-01-11T03:03:49.037Z,6.80
2023-01-11T03:06:25.314Z,7.20
2023-01-11T03:09:22.426Z,7.00
2023-01-11T03:12:39.056Z,6.90
2023-01-11T03:15:35.937Z,7.20
2023-01-11T03:18:29.500Z,6.90
2023-01-11T03:21:18.656Z,6.50
2023-01-11T03:24:06.560Z,7.40
2023-01-11T03:26:54.882Z,7.40
2023-01-11T03:29:37.286Z,7.10
2023-01-11T03:32:23.834Z,6.90
2023-01-11T03:35:10.894Z,7.20
2023-01-11T03:37:49.703Z,7.30
2023-01-11T03:40:28.326Z,7.20
2023-01-11T03:43:14.935Z,7.40
2023-01-11T03:45:56.666Z,7.20
2023-01-11T03:48:36.402Z,7.20
2023-01-11T03:51:16.145Z,7.20
2023-01-11T03:53:52.876Z,7.10
2023-01-11T03:56:33.655Z,7.20
2023-01-11T03:59:08.278Z,7.30
2023-01-11T04:01:42.274Z,7.20
2023-01-11T04:04:16.555Z,7.00
2023-01-11T04:06:50.645Z,7.00
2023-01-11T04:09:24.874Z,7.20
2023-01-11T04:11:58.515Z,7.20
2023-01-11T04:14:32.260Z,7.00
2023-01-11T04:17:06.662Z,7.40
2023-01-11T04:19:41.387Z,7.50
2023-01-11T04:22:18.370Z,7.30
2023-01-11T04:24:52.382Z,6.90
2023-01-11T04:27:26.151Z,7.40
2023-01-11T04:30:00.162Z,7.20
2023-01-11T04:32:34.268Z,7.20
2023-01-11T04:35:10.278Z,7.20
2023-01-11T04:37:44.144Z,7.50
2023-01-11T04:40:20.345Z,7.40
2023-01-11T04:42:54.354Z,7.20
2023-01-11T04:45:28.186Z,7.30
2023-01-11T04:48:02.257Z,7.30
2023-01-11T04:50:36.394Z,7.70
2023-01-11T04:53:10.474Z,7.70
2023-01-11T04:55:47.603Z,7.30
2023-01-11T04:58:21.353Z,7.10
2023-01-11T05:00:54.964Z,7.10
2023-01-11T05:03:28.829Z,7.10
2023-01-11T05:06:03.802Z,6.90
2023-01-11T05:08:38.726Z,7.00
2023-01-11T05:11:12.995Z,7.30
2023-01-11T05:13:47.527Z,7.10
2023-01-11T05:16:24.240Z,7.50
2023-01-11T05:19:00.198Z,6.90
2023-01-11T05:21:36.675Z,7.10
2023-01-11T05:24:16.821Z,7.00
2023-01-11T05:26:52.794Z,7.10
2023-01-11T05:29:27.259Z,6.60
2023-01-11T05:32:01.531Z,6.90
2023-01-11T05:34:39.128Z,6.90
2023-01-11T05:37:13.255Z,7.10
2023-01-11T05:39:47.653Z,6.70
2023-01-11T05:42:22.382Z,6.70
2023-01-11T05:45:13.508Z,6.70
2023-01-11T05:47:47.655Z,6.10
2023-01-11T05:50:23.351Z,6.70
2023-01-11T05:52:57.676Z,6.60
2023-01-11T05:55:31.922Z,6.40
2023-01-11T05:58:08.307Z,6.30
2023-01-11T06:00:42.477Z,6.40
2023-01-11T06:03:17.167Z,6.40
2023-01-11T06:05:52.027Z,6.60
2023-01-11T06:08:26.192Z,6.20
2023-01-11T06:11:01.628Z,6.20
2023-01-11T06:13:36.113Z,6.20
2023-01-11T06:16:13.780Z,6.00
2023-01-11T06:18:49.793Z,5.80
2023-01-11T06:21:25.368Z,6.10
2023-01-11T06:24:01.655Z,5.90
2023-01-11T06:26:36.165Z,6.00
2023-01-11T06:29:10.386Z,6.10
2023-01-11T06:31:44.649Z,5.70
2023-01-11T06:34:18.721Z,5.70
2023-01-11T06:36:52.953Z,6.10
2023-01-11T06:39:31.706Z,5.90
2023-01-11T06:42:05.712Z,5.80
2023-01-11T06:44:40.016Z,5.50
2023-01-11T06:47:16.401Z,5.60
2023-01-11T06:49:50.876Z,6.00
2023-01-11T06:52:24.948Z,5.70
2023-01-11T06:54:58.802Z,6.30
2023-01-11T06:57:34.027Z,5.70
2023-01-11T07:00:11.785Z,5.40
2023-01-11T07:02:46.104Z,5.50
2023-01-11T07:05:21.480Z,5.50
2023-01-11T07:07:55.936Z,6.00
2023-01-11T07:10:30.764Z,5.60
2023-01-11T07:13:05.543Z,5.40
2023-01-11T07:15:39.969Z,5.50
2023-01-11T07:18:14.942Z,5.50
2023-01-11T07:20:49.579Z,5.90
2023-01-11T07:23:23.545Z,5.40
2023-01-11T07:25:57.535Z,5.70
2023-01-11T07:28:31.714Z,5.60
2023-01-11T07:31:05.983Z,5.70
2023-01-11T07:33:39.945Z,5.60
2023-01-11T07:36:14.585Z,5.80
2023-01-11T07:38:50.201Z,5.40
2023-01-11T07:41:41.689Z,5.50
2023-01-11T07:44:16.513Z,5.50
2023-01-11T07:46:50.723Z,6.00
2023-01-11T07:49:24.743Z,5.50
2023-01-11T07:51:59.022Z,5.40
2023-01-11T07:54:33.136Z,5.50
2023-01-11T07:57:07.152Z,6.00
2023-01-11T07:59:41.051Z,6.10
2023-01-11T08:02:16.531Z,6.30
2023-01-11T08:04:50.899Z,5.60
2023-01-11T08:07:25.142Z,5.80
2023-01-11T08:09:59.358Z,5.90
2023-01-11T08:12:51.680Z,5.90
2023-01-11T08:15:25.694Z,5.50
2023-01-11T08:18:04.588Z,5.90
2023-01-11T08:20:40.783Z,6.00
2023-01-11T08:23:15.050Z,5.90
2023-01-11T08:25:48.967Z,5.80
2023-01-11T08:28:22.721Z,6.20
2023-01-11T08:30:56.619Z,5.60
2023-01-11T08:33:30.488Z,5.80
2023-01-11T08:36:10.587Z,5.50
2023-01-11T08:38:44.800Z,6.20
2023-01-11T08:41:18.720Z,5.80
2023-01-11T08:43:53.602Z,6.00
2023-01-11T08:46:28.058Z,5.90
2023-01-11T08:49:02.448Z,5.70
2023-01-11T08:51:37.088Z,5.80
2023-01-11T08:54:14.161Z,5.40
2023-01-11T08:56:48.438Z,6.00
2023-01-11T08:59:23.154Z,5.70
2023-01-11T09:01:57.252Z,5.60
2023-01-11T09:04:32.139Z,5.60
2023-01-11T09:07:06.165Z,5.50
2023-01-11T09:09:40.591Z,5.80
2023-01-11T09:12:15.010Z,5.60
2023-01-11T09:14:49.420Z,5.40
2023-01-11T09:17:23.801Z,5.50
2023-01-11T09:20:00.137Z,5.30
2023-01-11T09:22:33.920Z,5.30
2023-01-11T09:25:10.370Z,5.60
2023-01-11T09:27:47.640Z,5.20
2023-01-11T09:30:24.756Z,5.40
2023-01-11T09:32:58.456Z,5.20
2023-01-11T09:35:32.438Z,5.50
2023-01-11T09:38:06.359Z,5.50
2023-01-11T09:40:53.553Z,5.10
2023-01-11T09:43:30.989Z,5.10
2023-01-11T09:46:09.477Z,5.20
2023-01-11T09:48:48.348Z,4.90
2023-01-11T09:51:24.536Z,4.80
2023-01-11T09:54:01.086Z,5.00
2023-01-11T09:56:46.744Z,4.90
2023-01-11T09:59:33.994Z,5.00
2023-01-11T10:02:24.296Z,5.10
2023-01-11T10:05:26.060Z,5.60
2023-01-11T10:18:22.928Z,5.70
2023-01-11T10:18:29.208Z,6.90
2023-01-11T10:20:53.845Z,6.30
2023-01-11T10:23:36.347Z,5.30
2023-01-11T10:26:25.310Z,5.40
2023-01-11T10:29:22.045Z,5.60
2023-01-11T10:32:34.799Z,5.80
2023-01-11T10:38:43.731Z,5.90
2023-01-11T10:41:34.123Z,6.20
2023-01-11T10:44:19.554Z,6.50
2023-01-11T10:47:00.996Z,6.50
2023-01-11T10:49:46.829Z,6.30
2023-01-11T10:52:36.043Z,5.90
2023-01-11T10:55:23.706Z,5.30
2023-01-11T10:58:12.401Z,6.60
2023-01-11T11:00:57.336Z,5.50
2023-01-11T11:04:07.756Z,5.70
2023-01-11T11:06:52.513Z,5.80
2023-01-11T11:09:38.039Z,6.40
2023-01-11T11:12:16.450Z,5.50
2023-01-11T11:14:59.060Z,5.40
2023-01-11T11:17:38.129Z,5.80
2023-01-11T11:20:19.127Z,6.00
2023-01-11T11:22:57.706Z,5.20
2023-01-11T11:25:35.727Z,4.80
2023-01-11T11:28:26.473Z,5.00
2023-01-11T11:31:03.369Z,4.50
2023-01-11T11:33:40.957Z,4.80
2023-01-11T11:36:17.871Z,4.70
2023-01-11T11:39:11.573Z,4.30
2023-01-11T11:42:07.700Z,4.70
2023-01-11T11:44:45.246Z,4.60
2023-01-11T11:47:20.900Z,4.30
2023-01-11T11:49:56.655Z,4.70
2023-01-11T11:52:31.073Z,4.60
2023-01-11T11:55:11.471Z,4.60
2023-01-11T11:57:47.808Z,4.70
2023-01-11T12:00:29.629Z,4.80
2023-01-11T12:03:12.289Z,4.90
2023-01-11T12:05:59.105Z,5.00
2023-01-11T12:08:36.739Z,4.60
2023-01-11T12:11:20.378Z,5.00
2023-01-11T12:14:08.513Z,4.60
2023-01-11T12:16:46.384Z,4.80
2023-01-11T12:19:40.956Z,4.50
2023-01-11T12:22:23.149Z,4.50
2023-01-11T12:25:24.394Z,4.90
2023-01-11T12:28:07.904Z,4.50
2023-01-11T12:30:57.528Z,4.50
2023-01-11T12:33:48.670Z,4.60
2023-01-11T12:36:35.394Z,4.60
2023-01-11T12:39:20.596Z,4.70
2023-01-11T12:42:19.221Z,4.80
2023-01-11T12:45:17.592Z,4.50
2023-01-11T12:48:33.579Z,4.50
2023-01-11T12:51:22.622Z,4.10
2023-01-11T12:54:20.427Z,4.60
2023-01-11T12:57:19.138Z,4.40
2023-01-11T13:00:22.991Z,4.40
2023-01-11T13:03:45.305Z,4.50
2023-01-11T13:06:25.398Z,4.40
2023-01-11T13:09:07.493Z,4.80
2023-01-11T13:14:47.069Z,4.40
2023-01-11T13:17:33.536Z,4.60
2023-01-11T13:20:40.361Z,4.50
2023-01-11T13:23:39.437Z,4.00
2023-01-11T13:26:25.475Z,4.10
2023-01-11T13:29:07.316Z,4.20
2023-01-11T13:31:48.337Z,4.30
2023-01-11T13:34:31.664Z,4.60
2023-01-11T13:37:15.556Z,4.50
2023-01-11T13:39:59.108Z,4.40
2023-01-11T13:42:39.229Z,4.70
2023-01-11T13:45:23.221Z,4.60
2023-01-11T13:48:02.303Z,4.50
2023-01-11T13:50:46.187Z,4.30
2023-01-11T13:53:29.301Z,4.60
2023-01-11T13:56:08.671Z,4.70
2023-01-11T13:58:52.644Z,4.60
2023-01-11T14:01:44.447Z,4.20
2023-01-11T14:04:25.885Z,4.20
2023-01-11T14:07:18.616Z,4.40
2023-01-11T14:10:16.123Z,4.30
2023-01-11T14:13:10.152Z,4.50
2023-01-11T14:15:53.505Z,4.40
2023-01-11T14:18:39.056Z,4.30
2023-01-11T14:21:22.671Z,4.40
2023-01-11T14:23:57.859Z,4.30
2023-01-11T14:26:56.426Z,4.20
2023-01-11T14:30:18.588Z,4.40
2023-01-11T14:33:27.065Z,4.40
2023-01-11T14:36:24.969Z,4.60
2023-01-11T14:39:41.175Z,4.30
2023-01-11T14:42:48.077Z,4.30
2023-01-11T14:45:36.785Z,4.60
2023-01-11T14:48:29.182Z,4.40
2023-01-11T14:51:32.579Z,4.10
2023-01-11T14:54:14.058Z,4.20
2023-01-11T14:56:57.768Z,4.50
2023-01-11T14:59:39.961Z,4.10
2023-01-11T15:02:30.557Z,4.40
2023-01-11T15:05:31.854Z,4.30
2023-01-11T15:08:29.545Z,4.20
2023-01-11T15:11:06.277Z,4.00
2023-01-11T15:13:50.845Z,4.00
2023-01-11T15:17:01.833Z,4.10
2023-01-11T15:19:39.476Z,4.00
2023-01-11T15:22:29.920Z,4.00
2023-01-11T15:25:07.131Z,4.40
2023-01-11T15:27:42.448Z,4.10
2023-01-11T15:30:41.170Z,4.10
2023-01-11T15:33:48.509Z,4.40
2023-01-11T15:36:27.526Z,4.00
2023-01-11T15:39:07.223Z,4.00
2023-01-11T15:42:05.301Z,4.40
2023-01-11T15:45:04.670Z,4.10
2023-01-11T15:51:16.055Z,4.10
2023-01-11T15:54:19.532Z,4.40
2023-01-11T15:57:32.540Z,3.90
2023-01-11T16:00:50.654Z,4.30
2023-01-11T16:03:49.910Z,4.20
2023-01-11T16:06:38.603Z,4.60
2023-01-11T16:10:02.660Z,4.10
2023-01-11T16:12:56.746Z,4.50
2023-01-11T16:15:49.567Z,4.30
2023-01-11T16:18:28.626Z,4.10
2023-01-11T16:21:06.888Z,4.30
2023-01-11T16:23:41.974Z,4.50
2023-01-11T16:26:23.246Z,4.30
2023-01-11T16:29:02.540Z,4.60
2023-01-11T16:31:57.781Z,4.80
2023-01-11T16:34:39.528Z,5.00
2023-01-11T16:37:27.506Z,4.60
2023-01-11T16:40:06.228Z,4.90
2023-01-11T16:42:47.355Z,4.60
2023-01-11T16:45:25.603Z,4.50
2023-01-11T16:48:16.956Z,4.50
2023-01-11T16:51:03.887Z,4.70
2023-01-11T16:53:39.546Z,4.60
2023-01-11T16:56:19.493Z,4.70
2023-01-11T16:59:23.736Z,4.50
2023-01-11T17:02:00.660Z,4.30
2023-01-11T17:04:37.523Z,4.40
2023-01-11T17:07:24.912Z,4.40
2023-01-11T17:10:22.263Z,4.40
2023-01-11T17:13:35.023Z,4.40
2023-01-11T17:16:16.323Z,4.20
2023-01-11T17:18:50.492Z,4.70
2023-01-11T17:21:28.206Z,4.90
2023-01-11T17:24:07.803Z,4.80
2023-01-11T17:26:47.066Z,4.90
2023-01-11T17:29:33.258Z,5.00
2023-01-11T17:32:16.803Z,4.40
2023-01-11T17:34:53.999Z,4.50
2023-01-11T17:37:28.704Z,4.60
2023-01-11T17:40:03.487Z,5.00
2023-01-11T17:42:54.973Z,4.80
2023-01-11T17:45:29.484Z,4.50
2023-01-11T17:48:14.986Z,4.50
2023-01-11T17:50:54.601Z,4.60
2023-01-11T17:53:32.324Z,4.60
2023-01-11T17:56:08.366Z,4.70
2023-01-11T17:58:42.654Z,4.70
2023-01-11T18:01:28.540Z,4.80
2023-01-11T18:04:02.856Z,4.90
2023-01-11T18:06:41.754Z,4.40
2023-01-11T18:09:29.429Z,4.70
2023-01-11T18:12:16.074Z,4.60
2023-01-11T18:14:56.227Z,4.70
2023-01-11T18:17:37.610Z,4.90
2023-01-11T18:20:40.257Z,5.00
2023-01-11T18:23:28.315Z,4.90
2023-01-11T18:26:32.015Z,5.00
2023-01-11T18:29:05.991Z,4.60
2023-01-11T18:31:39.825Z,4.50
2023-01-11T18:34:14.961Z,4.70
2023-01-11T18:36:48.723Z,4.40
2023-01-11T18:39:22.768Z,4.60
2023-01-11T18:42:09.530Z,4.80
2023-01-11T18:44:46.632Z,4.80
2023-01-11T18:47:23.980Z,4.90
2023-01-11T18:49:58.903Z,4.90
2023-01-11T18:52:32.970Z,4.90
2023-01-11T18:55:11.706Z,4.70
2023-01-11T18:57:47.554Z,4.80
2023-01-11T19:00:23.693Z,4.90
2023-01-11T19:02:57.898Z,5.00
2023-01-11T19:05:32.392Z,4.90
2023-01-11T19:08:09.378Z,5.10
2023-01-11T19:10:43.853Z,4.90
2023-01-11T19:13:19.712Z,5.30
2023-01-11T19:15:54.353Z,5.20
2023-01-11T19:18:29.343Z,5.40
2023-01-11T19:21:12.040Z,4.90
2023-01-11T19:23:46.919Z,4.80
2023-01-11T19:26:23.397Z,4.90
2023-01-11T19:28:57.454Z,4.90
2023-01-11T19:31:33.242Z,4.80
2023-01-11T19:34:07.356Z,4.90
2023-01-11T19:36:41.442Z,4.60
2023-01-11T19:39:15.736Z,4.90
2023-01-11T19:41:58.033Z,5.30
2023-01-11T19:44:39.121Z,5.10
2023-01-11T19:47:16.549Z,5.10
2023-01-11T19:49:51.076Z,5.30
2023-01-11T19:52:25.492Z,5.00
2023-01-11T19:55:02.534Z,5.20
2023-01-11T19:57:37.421Z,5.20
2023-01-11T20:00:15.003Z,5.10
2023-01-11T20:02:49.555Z,5.30
2023-01-11T20:05:24.323Z,5.40
2023-01-11T20:07:59.059Z,5.00
2023-01-11T20:10:34.038Z,5.40
2023-01-11T20:13:08.500Z,5.40
2023-01-11T20:15:43.322Z,5.10
2023-01-11T20:18:18.018Z,5.30
2023-01-11T20:21:00.616Z,4.90
2023-01-11T20:23:36.422Z,5.50
2023-01-11T20:26:15.778Z,5.30
2023-01-11T20:28:56.933Z,5.30
2023-01-11T20:31:35.815Z,5.40
2023-01-11T20:34:15.342Z,5.00
2023-01-11T20:36:50.843Z,5.40
2023-01-11T20:39:27.864Z,5.70
2023-01-11T20:42:03.273Z,5.40
2023-01-11T20:44:37.997Z,5.50
2023-01-11T20:47:12.884Z,5.60
2023-01-11T20:49:47.865Z,5.70
2023-01-11T20:52:22.101Z,5.60
2023-01-11T20:54:56.815Z,5.80
2023-01-11T20:57:31.230Z,5.20
2023-01-11T21:00:07.805Z,5.50
2023-01-11T21:02:42.667Z,5.70
2023-01-11T21:05:17.353Z,5.90
2023-01-11T21:07:53.728Z,5.80
2023-01-11T21:10:28.556Z,5.60
2023-01-11T21:13:04.206Z,5.80
2023-01-11T21:15:41.219Z,6.10
2023-01-11T21:18:16.120Z,5.90
2023-01-11T21:20:53.355Z,6.20
2023-01-11T21:23:27.883Z,6.30
2023-01-11T21:26:05.222Z,6.10
2023-01-11T21:28:40.564Z,6.20
2023-01-11T21:31:18.244Z,6.40
2023-01-11T21:33:53.439Z,6.00
2023-01-11T21:36:30.382Z,6.20
2023-01-11T21:39:05.515Z,5.90
2023-01-11T21:42:00.068Z,5.80
2023-01-11T21:44:36.007Z,6.00
2023-01-11T21:47:14.746Z,6.00
2023-01-11T21:49:49.275Z,6.20
2023-01-11T21:52:23.620Z,6.30
2023-01-11T21:55:00.456Z,6.40
2023-01-11T21:57:34.816Z,6.50
2023-01-11T22:00:14.476Z,6.50
2023-01-11T22:02:52.459Z,6.20
2023-01-11T22:05:29.285Z,6.50
2023-01-11T22:08:03.872Z,6.70
2023-01-11T22:10:39.458Z,6.20
2023-01-11T22:13:13.986Z,6.50
2023-01-11T22:15:48.604Z,6.20
2023-01-11T22:18:23.342Z,6.40
2023-01-11T22:20:58.121Z,6.60
2023-01-11T22:23:32.541Z,6.50
2023-01-11T22:26:11.309Z,6.50
2023-01-11T22:29:04.359Z,6.60
2023-01-11T22:31:39.412Z,6.40
2023-01-11T22:34:15.516Z,6.60
2023-01-11T22:36:54.484Z,6.40
2023-01-11T22:39:31.016Z,6.50
2023-01-11T22:42:10.055Z,6.70
2023-01-11T22:44:45.319Z,6.50
2023-01-11T22:47:20.198Z,6.60
2023-01-11T22:49:56.418Z,6.70
2023-01-11T22:52:32.372Z,6.80
2023-01-11T22:55:08.613Z,7.00
2023-01-11T22:57:43.212Z,7.10
2023-01-11T23:00:18.859Z,7.40
2023-01-11T23:02:53.243Z,6.80
2023-01-11T23:05:28.371Z,7.20
2023-01-11T23:08:03.057Z,7.20
2023-01-11T23:10:37.779Z,6.80
2023-01-11T23:13:31.647Z,7.00
2023-01-11T23:16:06.728Z,7.40
2023-01-11T23:18:41.563Z,7.10
2023-01-11T23:21:16.079Z,7.10
2023-01-11T23:23:50.714Z,7.30
2023-01-11T23:26:25.235Z,7.10
2023-01-11T23:28:59.558Z,7.30
2023-01-11T23:31:35.520Z,7.10
2023-01-11T23:34:13.158Z,7.00
2023-01-11T23:36:47.994Z,7.30
2023-01-11T23:39:23.963Z,7.50
2023-01-11T23:42:15.814Z,7.60
2023-01-11T23:44:50.546Z,7.80
2023-01-11T23:47:26.142Z,7.60
2023-01-11T23:50:02.008Z,7.50
2023-01-11T23:52:37.249Z,8.10
2023-01-11T23:55:14.114Z,7.60
2023-01-11T23:58:08.596Z,7.50
